createdAt,value
2023-04-14T00:00:27.126Z,3.40
2023-04-14T00:03:01.355Z,3.25
2023-04-14T00:05:34.804Z,3.58
2023-04-14T00:08:06.846Z,3.65
2023-04-14T00:10:38.776Z,3.22
2023-04-14T00:13:11.174Z,3.90
2023-04-14T00:15:43.250Z,3.67
2023-04-14T00:18:15.393Z,3.65
2023-04-14T00:20:47.878Z,3.85
2023-04-14T00:23:20.676Z,3.88
2023-04-14T00:26:05.392Z,3.58
2023-04-14T00:28:37.525Z,3.58
2023-04-14T00:31:09.624Z,3.78
2023-04-14T00:33:42.284Z,3.22
2023-04-14T00:36:14.340Z,3.55
2023-04-14T00:38:52.631Z,3.08
2023-04-14T00:41:24.935Z,3.50
2023-04-14T00:43:59.146Z,3.60
2023-04-14T00:46:32.891Z,3.15
2023-04-14T00:49:48.615Z,2.85
2023-04-14T00:52:23.544Z,3.60
2023-04-14T00:54:56.419Z,4.00
2023-04-14T00:57:29.995Z,2.95
2023-04-14T01:00:07.144Z,2.80
2023-04-14T01:02:40.022Z,3.10
2023-04-14T01:05:14.681Z,3.00
2023-04-14T01:07:48.646Z,3.00
2023-04-14T01:10:21.162Z,2.95
2023-04-14T01:13:46.863Z,2.80
2023-04-14T01:16:34.758Z,3.20
2023-04-14T01:19:20.745Z,3.35
2023-04-14T01:22:57.714Z,2.90
2023-04-14T01:26:00.764Z,3.38
2023-04-14T01:29:03.413Z,3.30
2023-04-14T01:32:09.750Z,3.20
2023-04-14T01:34:59.850Z,3.58
2023-04-14T01:37:47.672Z,3.40
2023-04-14T01:40:24.320Z,3.50
2023-04-14T01:43:03.772Z,3.72
2023-04-14T01:45:44.505Z,3.75
2023-04-14T01:48:21.208Z,4.00
2023-04-14T01:50:56.771Z,3.60
2023-04-14T01:53:31.599Z,4.03
2023-04-14T01:56:09.409Z,4.70
2023-04-14T01:58:42.784Z,4.55
2023-04-14T02:01:17.623Z,4.82
2023-04-14T02:03:50.686Z,4.10
2023-04-14T02:06:24.558Z,4.38
2023-04-14T02:09:10.300Z,4.10
2023-04-14T02:11:46.192Z,3.85
2023-04-14T02:14:21.418Z,4.63
2023-04-14T02:16:57.342Z,4.30
2023-04-14T02:19:31.149Z,4.45
2023-04-14T02:22:04.109Z,4.35
2023-04-14T02:24:36.220Z,4.38
2023-04-14T02:27:13.898Z,4.78
2023-04-14T02:29:58.778Z,4.30
2023-04-14T02:32:35.817Z,4.90
2023-04-14T02:35:21.896Z,4.88
2023-04-14T02:38:10.259Z,5.40
2023-04-14T02:41:08.610Z,5.30
2023-04-14T02:44:19.054Z,4.78
2023-04-14T02:47:03.965Z,4.93
2023-04-14T02:49:46.802Z,4.88
2023-04-14T02:52:24.643Z,5.05
2023-04-14T02:55:00.326Z,5.13
2023-04-14T02:57:35.087Z,5.50
2023-04-14T03:00:09.296Z,5.20
2023-04-14T03:02:46.325Z,6.03
2023-04-14T03:05:19.319Z,5.15
2023-04-14T03:07:53.482Z,5.25
2023-04-14T03:11:14.721Z,5.13
2023-04-14T03:13:53.128Z,6.22
2023-04-14T03:16:28.856Z,5.30
2023-04-14T03:19:03.524Z,6.68
2023-04-14T03:21:37.762Z,6.40
2023-04-14T03:24:14.056Z,5.88
2023-04-14T03:26:57.244Z,6.65
2023-04-14T03:29:43.302Z,5.50
2023-04-14T03:32:41.748Z,5.22
2023-04-14T03:35:18.581Z,5.07
2023-04-14T03:37:59.664Z,5.40
2023-04-14T03:40:38.351Z,5.50
2023-04-14T03:43:19.812Z,4.90
2023-04-14T03:45:53.979Z,5.30
2023-04-14T03:48:30.432Z,5.55
2023-04-14T03:51:09.038Z,4.55
2023-04-14T03:53:46.386Z,5.20
2023-04-14T03:56:20.259Z,5.97
2023-04-14T03:58:55.905Z,4.93
2023-04-14T04:01:28.538Z,4.45
2023-04-14T04:04:03.335Z,4.50
2023-04-14T04:06:37.761Z,4.30
2023-04-14T04:09:14.783Z,4.13
2023-04-14T04:11:51.052Z,4.13
2023-04-14T04:14:27.760Z,4.45
2023-04-14T04:17:07.732Z,3.72
2023-04-14T04:19:44.056Z,4.10
2023-04-14T04:22:20.291Z,4.22
2023-04-14T04:24:55.868Z,4.95
2023-04-14T04:27:29.220Z,5.00
2023-04-14T04:30:01.688Z,5.90
2023-04-14T04:32:39.633Z,4.97
2023-04-14T04:35:12.324Z,6.63
2023-04-14T04:37:46.280Z,5.80
2023-04-14T04:40:38.522Z,6.10
2023-04-14T04:43:10.538Z,6.80
2023-04-14T04:46:15.445Z,7.82
2023-04-14T04:48:57.255Z,7.63
2023-04-14T04:51:29.668Z,7.75
2023-04-14T04:54:02.199Z,6.20
2023-04-14T04:56:34.497Z,6.40
2023-04-14T04:59:06.757Z,5.00
2023-04-14T05:01:38.976Z,5.50
2023-04-14T05:04:11.979Z,4.97
2023-04-14T05:06:44.188Z,5.85
2023-04-14T05:09:16.504Z,4.90
2023-04-14T05:11:48.674Z,4.53
2023-04-14T05:14:20.752Z,4.70
2023-04-14T05:16:52.797Z,5.40
2023-04-14T05:19:24.916Z,4.65
2023-04-14T05:21:56.991Z,6.13
2023-04-14T05:24:29.062Z,4.72
2023-04-14T05:27:13.570Z,5.95
2023-04-14T05:29:46.659Z,5.10
2023-04-14T05:32:18.611Z,5.25
2023-04-14T05:34:52.303Z,4.50
2023-04-14T05:37:24.351Z,4.88
2023-04-14T05:39:56.644Z,4.30
2023-04-14T05:42:28.671Z,5.10
2023-04-14T05:45:01.064Z,5.20
2023-04-14T05:47:33.282Z,5.30
2023-04-14T05:50:07.409Z,4.82
2023-04-14T05:52:39.689Z,5.07
2023-04-14T05:55:11.799Z,4.43
2023-04-14T05:57:44.450Z,4.28
2023-04-14T06:00:17.413Z,3.95
2023-04-14T06:02:50.131Z,4.78
2023-04-14T06:05:24.492Z,4.50
2023-04-14T06:07:56.688Z,4.30
2023-04-14T06:10:28.717Z,3.95
2023-04-14T06:13:02.433Z,4.55
2023-04-14T06:15:34.535Z,4.10
2023-04-14T06:18:06.846Z,3.55
2023-04-14T06:20:39.378Z,4.40
2023-04-14T06:23:14.411Z,4.35
2023-04-14T06:25:47.427Z,4.20
2023-04-14T06:28:23.940Z,4.43
2023-04-14T06:30:57.106Z,3.50
2023-04-14T06:33:29.170Z,3.22
2023-04-14T06:36:02.039Z,3.10
2023-04-14T06:38:34.325Z,2.63
2023-04-14T06:41:06.412Z,2.85
2023-04-14T06:43:38.584Z,2.70
2023-04-14T06:46:11.023Z,2.35
2023-04-14T06:48:49.347Z,2.70
2023-04-14T06:51:21.425Z,3.03
2023-04-14T06:53:53.487Z,2.60
2023-04-14T06:56:25.522Z,2.38
2023-04-14T06:58:57.777Z,2.50
2023-04-14T07:01:29.927Z,2.30
2023-04-14T07:04:06.885Z,2.20
2023-04-14T07:06:40.803Z,2.40
2023-04-14T07:09:13.753Z,1.87
2023-04-14T07:11:46.505Z,2.20
2023-04-14T07:14:18.920Z,1.83
2023-04-14T07:16:52.227Z,2.37
2023-04-14T07:19:24.509Z,2.40
2023-04-14T07:21:56.785Z,2.20
2023-04-14T07:24:28.955Z,2.47
2023-04-14T07:27:01.324Z,2.20
2023-04-14T07:29:34.957Z,1.80
2023-04-14T07:32:07.692Z,1.83
2023-04-14T07:34:43.641Z,2.30
2023-04-14T07:37:16.444Z,2.20
2023-04-14T07:39:49.333Z,2.10
2023-04-14T07:42:21.790Z,2.20
2023-04-14T07:44:57.818Z,2.43
2023-04-14T07:47:29.978Z,2.00
2023-04-14T07:50:04.077Z,2.73
2023-04-14T07:52:37.909Z,2.00
2023-04-14T07:55:10.393Z,2.30
2023-04-14T07:57:42.701Z,2.07
2023-04-14T08:00:15.617Z,1.80
2023-04-14T08:02:48.212Z,2.17
2023-04-14T08:05:20.783Z,2.37
2023-04-14T08:07:53.380Z,2.43
2023-04-14T08:10:26.215Z,2.20
2023-04-14T08:12:58.488Z,1.80
2023-04-14T08:15:32.499Z,2.13
2023-04-14T08:18:05.335Z,2.10
2023-04-14T08:20:38.687Z,2.10
2023-04-14T08:23:12.171Z,2.73
2023-04-14T08:25:45.393Z,1.85
2023-04-14T08:28:18.433Z,1.92
2023-04-14T08:30:50.915Z,1.80
2023-04-14T08:33:23.544Z,1.67
2023-04-14T08:35:59.485Z,2.00
2023-04-14T08:38:33.404Z,2.50
2023-04-14T08:41:09.898Z,2.45
2023-04-14T08:43:45.632Z,2.25
2023-04-14T08:46:20.872Z,1.90
2023-04-14T08:49:07.881Z,2.38
2023-04-14T08:51:45.462Z,2.25
2023-04-14T08:54:19.654Z,2.00
2023-04-14T08:56:53.929Z,2.35
2023-04-14T08:59:29.242Z,2.47
2023-04-14T09:02:06.284Z,2.67
2023-04-14T09:04:42.668Z,2.58
2023-04-14T09:07:16.759Z,2.15
2023-04-14T09:09:50.524Z,2.30
2023-04-14T09:12:23.940Z,2.70
2023-04-14T09:14:59.300Z,2.38
2023-04-14T09:17:32.711Z,2.05
2023-04-14T09:20:37.620Z,2.00
2023-04-14T09:22:58.458Z,3.03
2023-04-14T09:25:30.824Z,2.30
2023-04-14T09:28:42.202Z,2.35
2023-04-14T09:31:14.351Z,2.30
2023-04-14T09:33:52.363Z,2.60
2023-04-14T09:36:26.883Z,2.67
2023-04-14T09:38:59.969Z,2.30
2023-04-14T09:41:49.678Z,2.90
2023-04-14T09:44:22.193Z,3.10
2023-04-14T09:47:01.981Z,2.65
2023-04-14T09:49:37.368Z,2.25
2023-04-14T09:52:43.253Z,3.03
2023-04-14T09:55:19.807Z,2.60
2023-04-14T09:57:52.519Z,2.80
2023-04-14T10:00:25.482Z,2.30
2023-04-14T10:03:01.537Z,2.83
2023-04-14T10:05:34.937Z,2.42
2023-04-14T10:08:08.103Z,2.92
2023-04-14T10:10:40.532Z,2.65
2023-04-14T10:13:23.388Z,2.20
2023-04-14T10:15:55.931Z,2.40
2023-04-14T10:18:28.254Z,3.05
2023-04-14T10:21:01.601Z,3.10
2023-04-14T10:23:39.517Z,2.40
2023-04-14T10:26:14.266Z,2.55
2023-04-14T10:28:50.218Z,2.83
2023-04-14T10:31:29.383Z,2.40
2023-04-14T10:34:11.079Z,2.65
2023-04-14T10:36:44.759Z,2.30
2023-04-14T10:39:25.125Z,2.10
2023-04-14T10:41:57.749Z,2.67
2023-04-14T10:44:31.841Z,2.20
2023-04-14T10:47:07.882Z,2.90
2023-04-14T10:49:41.646Z,2.85
2023-04-14T10:52:33.892Z,2.78
2023-04-14T10:55:11.913Z,2.60
2023-04-14T10:57:45.817Z,2.65
2023-04-14T11:00:24.437Z,2.90
2023-04-14T11:03:11.125Z,2.33
2023-04-14T11:05:52.376Z,2.35
2023-04-14T11:08:34.464Z,2.55
2023-04-14T11:11:07.706Z,2.85
2023-04-14T11:13:42.415Z,2.60
2023-04-14T11:16:15.096Z,2.58
2023-04-14T11:19:01.959Z,2.20
2023-04-14T11:21:34.182Z,2.30
2023-04-14T11:24:21.314Z,2.35
2023-04-14T11:26:55.489Z,2.60
2023-04-14T11:29:27.682Z,2.23
2023-04-14T11:32:09.183Z,2.10
2023-04-14T11:34:42.143Z,2.30
2023-04-14T11:37:16.883Z,2.30
2023-04-14T11:39:50.382Z,2.42
2023-04-14T11:42:22.681Z,2.30
2023-04-14T11:44:58.964Z,2.23
2023-04-14T11:47:33.420Z,2.00
2023-04-14T11:50:17.398Z,2.43
2023-04-14T11:52:49.792Z,2.80
2023-04-14T11:55:25.161Z,1.95
2023-04-14T11:57:59.349Z,2.17
2023-04-14T12:00:31.947Z,1.70
2023-04-14T12:03:04.957Z,2.30
2023-04-14T12:05:38.586Z,2.37
2023-04-14T12:08:12.761Z,2.40
2023-04-14T12:10:47.001Z,1.80
2023-04-14T12:13:21.446Z,1.73
2023-04-14T12:15:56.364Z,2.10
2023-04-14T12:18:29.795Z,2.37
2023-04-14T12:21:05.134Z,2.00
2023-04-14T12:23:42.232Z,1.80
2023-04-14T12:26:16.740Z,2.17
2023-04-14T12:28:57.051Z,1.97
2023-04-14T12:31:30.669Z,1.60
2023-04-14T12:34:06.717Z,1.70
2023-04-14T12:36:50.835Z,2.00
2023-04-14T12:39:26.246Z,2.00
2023-04-14T12:41:59.838Z,1.90
2023-04-14T12:44:32.098Z,1.70
2023-04-14T12:47:04.283Z,1.33
2023-04-14T12:49:38.083Z,2.27
2023-04-14T12:52:37.413Z,1.67
2023-04-14T12:55:21.700Z,1.80
2023-04-14T12:57:57.245Z,2.17
2023-04-14T13:00:30.566Z,1.57
2023-04-14T13:03:03.034Z,1.70
2023-04-14T13:05:35.867Z,1.67
2023-04-14T13:08:08.300Z,1.60
2023-04-14T13:10:40.742Z,1.70
2023-04-14T13:13:12.967Z,1.93
2023-04-14T13:16:15.331Z,1.70
2023-04-14T13:18:38.437Z,1.63
2023-04-14T13:21:11.490Z,1.40
2023-04-14T13:23:44.162Z,1.67
2023-04-14T13:26:16.617Z,1.40
2023-04-14T13:28:50.763Z,1.47
2023-04-14T13:31:22.979Z,1.53
2023-04-14T13:33:59.441Z,1.50
2023-04-14T13:36:32.146Z,1.50
2023-04-14T13:39:04.396Z,1.40
2023-04-14T13:41:37.558Z,1.80
2023-04-14T13:44:10.117Z,1.70
2023-04-14T13:46:45.738Z,1.77
2023-04-14T13:49:22.198Z,1.53
2023-04-14T13:51:54.586Z,1.83
2023-04-14T13:54:27.153Z,1.80
2023-04-14T13:56:59.329Z,1.53
2023-04-14T13:59:31.641Z,1.37
2023-04-14T14:02:04.582Z,1.40
2023-04-14T14:04:37.646Z,1.40
2023-04-14T14:07:09.974Z,1.70
2023-04-14T14:09:44.423Z,1.50
2023-04-14T14:12:20.841Z,1.50
2023-04-14T14:14:54.077Z,1.70
2023-04-14T14:18:13.509Z,1.50
2023-04-14T14:20:47.445Z,1.40
2023-04-14T14:23:19.798Z,1.53
2023-04-14T14:25:53.889Z,1.53
2023-04-14T14:28:27.769Z,1.40
2023-04-14T14:31:00.415Z,1.50
2023-04-14T14:33:32.491Z,1.60
2023-04-14T14:37:02.161Z,2.17
2023-04-14T14:39:34.784Z,1.57
2023-04-14T14:42:07.629Z,1.40
2023-04-14T14:44:39.841Z,1.70
2023-04-14T14:47:12.016Z,1.27
2023-04-14T14:49:56.551Z,1.60
2023-04-14T14:52:34.731Z,1.27
2023-04-14T14:55:07.890Z,1.43
2023-04-14T14:57:40.420Z,1.73
2023-04-14T15:00:13.459Z,1.33
2023-04-14T15:02:46.192Z,1.50
2023-04-14T15:05:18.522Z,1.47
2023-04-14T15:07:50.985Z,1.80
2023-04-14T15:10:23.214Z,1.50
2023-04-14T15:12:56.761Z,1.50
2023-04-14T15:15:29.356Z,1.53
2023-04-14T15:18:01.638Z,1.57
2023-04-14T15:20:33.942Z,1.87
2023-04-14T15:23:13.188Z,1.40
2023-04-14T15:25:45.507Z,1.50
2023-04-14T15:28:17.653Z,1.80
2023-04-14T15:30:49.772Z,1.83
2023-04-14T15:33:22.244Z,1.50
2023-04-14T15:35:54.747Z,2.07
2023-04-14T15:38:27.137Z,1.73
2023-04-14T15:40:59.809Z,1.80
2023-04-14T15:43:31.823Z,1.33
2023-04-14T15:46:07.534Z,1.67
2023-04-14T15:48:39.669Z,1.40
2023-04-14T15:51:11.871Z,1.23
2023-04-14T15:53:44.030Z,1.60
2023-04-14T15:56:16.263Z,1.40
2023-04-14T15:58:48.567Z,1.70
2023-04-14T16:01:21.073Z,1.50
2023-04-14T16:04:07.131Z,1.60
2023-04-14T16:06:39.458Z,1.37
2023-04-14T16:09:11.653Z,1.53
2023-04-14T16:11:43.687Z,1.70
2023-04-14T16:14:15.959Z,1.80
2023-04-14T16:16:48.601Z,1.50
2023-04-14T16:19:21.723Z,1.40
2023-04-14T16:21:57.796Z,1.50
2023-04-14T16:24:30.856Z,1.53
2023-04-14T16:27:02.992Z,1.60
2023-04-14T16:30:07.831Z,1.53
2023-04-14T16:32:41.455Z,1.80
2023-04-14T16:35:13.694Z,1.80
2023-04-14T16:37:45.781Z,1.60
2023-04-14T16:40:19.634Z,1.77
2023-04-14T16:42:52.961Z,1.80
2023-04-14T16:45:25.980Z,1.63
2023-04-14T16:48:44.896Z,1.55
2023-04-14T16:51:17.291Z,1.50
2023-04-14T16:57:42.577Z,1.77
2023-04-14T17:00:15.300Z,1.75
2023-04-14T17:02:48.217Z,1.33
2023-04-14T17:05:21.741Z,1.80
2023-04-14T17:07:53.944Z,1.90
2023-04-14T17:10:28.910Z,2.00
2023-04-14T17:13:01.938Z,1.63
2023-04-14T17:15:34.207Z,1.70
2023-04-14T17:18:06.461Z,2.05
2023-04-14T17:20:42.444Z,1.90
2023-04-14T17:23:16.251Z,1.85
2023-04-14T17:25:51.833Z,2.00
2023-04-14T17:28:26.781Z,1.63
2023-04-14T17:30:59.981Z,1.70
2023-04-14T17:33:33.143Z,1.70
2023-04-14T17:36:06.301Z,1.80
2023-04-14T17:38:42.261Z,1.80
2023-04-14T17:41:16.175Z,1.85
2023-04-14T17:43:49.103Z,1.98
2023-04-14T17:46:29.578Z,1.83
2023-04-14T17:49:04.804Z,2.08
2023-04-14T17:51:37.519Z,2.40
2023-04-14T17:54:10.188Z,2.15
2023-04-14T17:56:43.627Z,2.40
2023-04-14T17:59:20.890Z,2.05
2023-04-14T18:01:54.559Z,1.90
2023-04-14T18:04:27.395Z,1.45
2023-04-14T18:07:00.807Z,1.67
2023-04-14T18:09:34.042Z,1.80
2023-04-14T18:12:06.666Z,2.08
2023-04-14T18:14:39.795Z,1.83
2023-04-14T18:17:12.947Z,1.70
2023-04-14T18:19:45.577Z,1.90
2023-04-14T18:22:18.357Z,1.70
2023-04-14T18:24:51.234Z,1.75
2023-04-14T18:30:00.798Z,1.80
2023-04-14T18:32:34.459Z,1.50
2023-04-14T18:35:08.776Z,1.70
2023-04-14T18:37:43.481Z,2.00
2023-04-14T18:40:18.246Z,1.85
2023-04-14T18:42:52.245Z,2.17
2023-04-14T18:45:25.821Z,2.22
2023-04-14T18:47:58.849Z,2.58
2023-04-14T18:50:34.030Z,1.77
2023-04-14T18:53:06.948Z,2.60
2023-04-14T18:55:44.276Z,2.60
2023-04-14T18:58:19.003Z,3.22
2023-04-14T19:00:51.868Z,3.50
2023-04-14T19:03:25.062Z,3.22
2023-04-14T19:05:59.136Z,3.00
2023-04-14T19:08:32.118Z,2.92
2023-04-14T19:11:05.703Z,3.10
2023-04-14T19:13:38.197Z,2.53
2023-04-14T19:16:14.877Z,4.00
2023-04-14T19:18:48.101Z,4.40
2023-04-14T19:21:21.263Z,4.47
2023-04-14T19:23:57.079Z,3.58
2023-04-14T19:26:30.500Z,3.95
2023-04-14T19:29:05.837Z,3.30
2023-04-14T19:31:39.911Z,3.35
2023-04-14T19:34:13.223Z,2.90
2023-04-14T19:36:48.947Z,2.85
2023-04-14T19:39:22.137Z,3.42
2023-04-14T19:41:55.395Z,3.47
2023-04-14T19:44:30.193Z,3.50
2023-04-14T19:47:04.307Z,3.22
2023-04-14T19:49:38.061Z,3.00
2023-04-14T19:52:12.460Z,3.47
2023-04-14T19:54:47.939Z,3.60
2023-04-14T19:57:22.653Z,3.20
2023-04-14T19:59:56.406Z,3.72
2023-04-14T20:02:38.669Z,3.42
2023-04-14T20:05:12.938Z,3.40
2023-04-14T20:07:46.247Z,3.35
2023-04-14T20:10:37.541Z,3.75
2023-04-14T20:13:11.215Z,3.30
2023-04-14T20:15:44.785Z,3.47
2023-04-14T20:18:18.863Z,4.28
2023-04-14T20:20:55.073Z,3.67
2023-04-14T20:23:28.427Z,3.22
2023-04-14T20:26:02.158Z,3.03
2023-04-14T20:28:35.287Z,3.60
2023-04-14T20:31:09.519Z,3.30
2023-04-14T20:33:42.549Z,3.30
2023-04-14T20:36:16.658Z,2.65
2023-04-14T20:38:49.216Z,3.40
2023-04-14T20:41:21.907Z,3.80
2023-04-14T20:43:55.413Z,3.35
2023-04-14T20:46:28.135Z,3.63
2023-04-14T20:49:01.613Z,3.25
2023-04-14T20:51:34.272Z,3.40
2023-04-14T20:54:08.883Z,3.50
2023-04-14T20:56:41.903Z,3.20
2023-04-14T20:59:15.773Z,3.28
2023-04-14T21:01:49.018Z,3.55
2023-04-14T21:04:22.771Z,3.90
2023-04-14T21:06:57.566Z,3.88
2023-04-14T21:09:31.669Z,3.90
2023-04-14T21:12:16.025Z,3.70
2023-04-14T21:15:30.245Z,4.00
2023-04-14T21:17:42.898Z,3.50
2023-04-14T21:20:17.327Z,3.58
2023-04-14T21:22:51.094Z,3.60
2023-04-14T21:25:24.443Z,3.25
2023-04-14T21:27:56.816Z,3.30
2023-04-14T21:30:29.618Z,3.97
2023-04-14T21:33:04.214Z,3.15
2023-04-14T21:35:39.869Z,3.30
2023-04-14T21:38:13.111Z,4.07
2023-04-14T21:40:45.815Z,3.22
2023-04-14T21:43:18.367Z,4.57
2023-04-14T21:45:50.690Z,3.85
2023-04-14T21:48:24.093Z,3.95
2023-04-14T21:50:56.543Z,3.67
2023-04-14T21:53:28.869Z,3.65
2023-04-14T21:56:10.376Z,4.65
2023-04-14T21:58:45.683Z,10.13
2023-04-14T22:01:18.307Z,11.60
2023-04-14T22:03:51.919Z,7.60
2023-04-14T22:06:26.172Z,4.35
2023-04-14T22:09:00.089Z,3.50
2023-04-14T22:11:33.185Z,3.90
2023-04-14T22:14:06.099Z,3.15
2023-04-14T22:16:38.481Z,3.75
2023-04-14T22:19:11.920Z,5.78
2023-04-14T22:21:44.136Z,4.18
2023-04-14T22:24:16.345Z,6.00
2023-04-14T22:26:48.995Z,6.78
2023-04-14T22:29:22.097Z,5.03
2023-04-14T22:31:54.292Z,5.88
2023-04-14T22:34:26.797Z,5.65
2023-04-14T22:36:58.969Z,5.97
2023-04-14T22:39:31.518Z,6.53
2023-04-14T22:42:36.050Z,5.80
2023-04-14T22:45:11.875Z,6.15
2023-04-14T22:47:44.753Z,5.10
2023-04-14T22:50:17.710Z,4.25
2023-04-14T22:52:49.872Z,4.72
2023-04-14T22:55:22.210Z,4.00
2023-04-14T22:57:54.386Z,4.50
2023-04-14T23:00:26.721Z,4.35
2023-04-14T23:02:59.743Z,4.07
2023-04-14T23:06:05.887Z,4.70
2023-04-14T23:08:38.207Z,4.63
2023-04-14T23:11:10.682Z,4.10
2023-04-14T23:13:43.321Z,3.85
2023-04-14T23:16:20.227Z,4.10
2023-04-14T23:18:53.021Z,3.85
2023-04-14T23:21:25.529Z,4.43
2023-04-14T23:23:58.343Z,4.40
2023-04-14T23:26:31.075Z,4.25
2023-04-14T23:29:03.283Z,4.40
2023-04-14T23:31:35.959Z,5.45
2023-04-14T23:34:10.081Z,4.50
2023-04-14T23:36:42.559Z,4.25
2023-04-14T23:39:17.754Z,3.90
2023-04-14T23:41:50.446Z,4.15
2023-04-14T23:44:23.633Z,3.92
2023-04-14T23:46:56.397Z,4.30
2023-04-14T23:49:35.404Z,5.50
2023-04-14T23:52:08.360Z,5.97
2023-04-14T23:54:40.484Z,5.15
2023-04-14T23:57:12.781Z,4.65
2023-04-14T23:59:45.062Z,5.07
